createdAt,value
2022-09-05T00:02:04.279Z,102234.97
2022-09-05T00:04:47.788Z,102233.09
2022-09-05T00:07:34.410Z,102227.28
2022-09-05T00:10:35.950Z,102230.81
2022-09-05T00:13:22.651Z,102228.66
2022-09-05T00:16:33.542Z,102226.97
2022-09-05T00:24:24.708Z,102227.00
2022-09-05T00:24:35.329Z,102228.66
2022-09-05T00:26:32.238Z,102220.81
2022-09-05T00:29:09.524Z,102224.47
2022-09-05T00:31:57.259Z,102221.91
2022-09-05T00:34:47.190Z,102222.84
2022-09-05T00:37:40.158Z,102224.53
2022-09-05T00:40:42.903Z,102228.69
2022-09-05T00:43:17.796Z,102232.09
2022-09-05T00:46:02.637Z,102232.22
2022-09-05T00:48:53.449Z,102230.34
2022-09-05T00:51:41.779Z,102235.22
2022-09-05T00:54:12.913Z,102228.09
2022-09-05T00:57:00.834Z,102243.59
2022-09-05T00:59:58.892Z,102242.91
2022-09-05T01:02:52.373Z,102236.13
2022-09-05T01:05:47.291Z,102238.00
2022-09-05T01:08:22.983Z,102222.69
2022-09-05T01:10:52.884Z,102230.50
2022-09-05T01:14:03.783Z,102225.25
2022-09-05T01:16:53.682Z,102228.59
2022-09-05T01:19:38.301Z,102227.09
2022-09-05T01:22:33.385Z,102224.56
2022-09-05T01:25:25.807Z,102235.38
2022-09-05T01:29:14.098Z,102225.22
2022-09-05T01:31:09.597Z,102229.38
2022-09-05T01:33:53.961Z,102233.78
2022-09-05T01:36:29.561Z,102231.59
2022-09-05T01:40:10.546Z,102238.53
2022-09-05T01:42:08.585Z,102230.66
2022-09-05T01:44:55.396Z,102237.50
2022-09-05T01:47:43.186Z,102233.69
2022-09-05T01:50:15.957Z,102240.72
2022-09-05T01:53:10.310Z,102238.16
2022-09-05T01:56:08.762Z,102243.25
2022-09-05T01:59:10.905Z,102245.78
2022-09-05T02:01:46.603Z,102243.78
2022-09-05T02:04:49.415Z,102251.47
2022-09-05T02:07:30.104Z,102254.66
2022-09-05T02:10:14.470Z,102255.25
2022-09-05T02:13:01.908Z,102249.50
2022-09-05T02:15:42.901Z,102251.38
2022-09-05T02:18:23.283Z,102249.41
2022-09-05T02:20:58.807Z,102250.94
2022-09-05T02:23:52.681Z,102262.19
2022-09-05T02:26:35.961Z,102257.66
2022-09-05T02:29:29.169Z,102259.09
2022-09-05T02:32:03.591Z,102256.38
2022-09-05T02:34:58.938Z,102263.31
2022-09-05T02:39:57.610Z,102256.16
2022-09-05T02:45:01.105Z,102262.31
2022-09-05T02:45:14.077Z,102259.59
2022-09-05T02:46:30.747Z,102256.38
2022-09-05T02:50:14.163Z,102253.75
2022-09-05T02:57:25.626Z,102259.22
2022-09-05T02:57:43.490Z,102259.94
2022-09-05T02:58:11.117Z,102258.09
2022-09-05T03:00:54.985Z,102256.22
2022-09-05T03:03:34.976Z,102250.91
2022-09-05T03:06:34.946Z,102249.38
2022-09-05T03:09:23.093Z,102252.31
2022-09-05T03:12:29.339Z,102254.34
2022-09-05T03:15:43.489Z,102251.97
2022-09-05T03:18:21.032Z,102235.63
2022-09-05T03:21:09.007Z,102247.06
2022-09-05T03:23:58.947Z,102239.03
2022-09-05T03:26:43.521Z,102240.06
2022-09-05T03:29:34.745Z,102230.50
2022-09-05T03:32:07.431Z,102231.31
2022-09-05T03:35:08.198Z,102228.59
2022-09-05T03:38:01.929Z,102249.59
2022-09-05T03:40:48.379Z,102236.47
2022-09-05T03:43:29.815Z,102234.88
2022-09-05T03:46:15.285Z,102234.22
2022-09-05T03:50:03.726Z,102236.84
2022-09-05T03:57:14.512Z,102235.91
2022-09-05T03:57:15.839Z,102246.28
2022-09-05T03:58:31.867Z,102250.72
2022-09-05T04:03:20.268Z,102255.03
2022-09-05T04:08:18.263Z,102254.66
2022-09-05T04:08:20.722Z,102248.31
2022-09-05T04:10:35.983Z,102249.25
2022-09-05T04:13:09.517Z,102250.19
2022-09-05T04:15:46.409Z,102254.50
2022-09-05T04:18:18.701Z,102259.91
2022-09-05T04:21:27.040Z,102252.03
2022-09-05T04:24:14.949Z,102255.59
2022-09-05T04:27:00.199Z,102267.94
2022-09-05T04:29:57.563Z,102264.53
2022-09-05T04:32:54.637Z,102264.81
2022-09-05T04:35:21.761Z,102272.50
2022-09-05T04:37:51.029Z,102268.97
2022-09-05T04:40:40.028Z,102264.53
2022-09-05T04:43:13.487Z,102273.28
2022-09-05T04:46:19.343Z,102274.47
2022-09-05T04:49:04.563Z,102277.09
2022-09-05T04:51:41.319Z,102270.16
2022-09-05T04:54:35.273Z,102268.34
2022-09-05T04:57:14.251Z,102269.53
2022-09-05T05:03:05.606Z,102270.84
2022-09-05T05:06:15.486Z,102270.94
2022-09-05T05:06:31.652Z,102273.47
2022-09-05T05:08:53.947Z,102264.53
2022-09-05T05:17:53.918Z,102272.94
2022-09-05T05:18:04.179Z,102275.56
2022-09-05T05:18:11.989Z,102273.59
2022-09-05T05:21:07.332Z,102276.06
2022-09-05T05:23:36.223Z,102271.00
2022-09-05T05:26:07.019Z,102281.81
2022-09-05T05:28:58.573Z,102277.88
2022-09-05T05:31:30.293Z,102284.31
2022-09-05T05:34:06.143Z,102279.91
2022-09-05T05:36:55.291Z,102284.63
2022-09-05T05:39:28.842Z,102270.53
2022-09-05T05:41:57.125Z,102285.59
2022-09-05T05:44:28.644Z,102286.81
2022-09-05T05:47:31.724Z,102286.34
2022-09-05T05:50:43.545Z,102285.06
2022-09-05T05:53:45.443Z,102284.88
2022-09-05T05:56:32.002Z,102288.28
2022-09-05T05:59:13.547Z,102291.72
2022-09-05T06:01:58.606Z,102288.78
2022-09-05T06:05:04.022Z,102298.00
2022-09-05T06:09:26.800Z,102296.69
2022-09-05T06:14:55.645Z,102299.41
2022-09-05T06:15:06.393Z,102306.84
2022-09-05T06:17:19.994Z,102300.91
2022-09-05T06:22:11.120Z,102302.31
2022-09-05T06:23:56.388Z,102307.09
2022-09-05T06:26:44.641Z,102303.44
2022-09-05T06:29:45.186Z,102310.09
2022-09-05T06:32:56.914Z,102303.63
2022-09-05T06:35:41.362Z,102313.94
2022-09-05T06:38:42.747Z,102305.69
2022-09-05T06:41:33.707Z,102316.69
2022-09-05T06:44:27.866Z,102307.84
2022-09-05T06:47:24.119Z,102308.47
2022-09-05T06:49:50.354Z,102311.69
2022-09-05T06:52:28.204Z,102317.38
2022-09-05T06:55:15.495Z,102317.59
2022-09-05T06:58:15.942Z,102309.31
2022-09-05T07:00:50.376Z,102314.25
2022-09-05T07:03:23.988Z,102312.81
2022-09-05T07:05:58.452Z,102312.81
2022-09-05T07:08:52.033Z,102312.94
2022-09-05T07:11:45.069Z,102317.88
2022-09-05T07:14:36.267Z,102323.91
2022-09-05T07:17:30.851Z,102324.38
2022-09-05T07:20:01.874Z,102329.53
2022-09-05T07:22:47.326Z,102330.47
2022-09-05T07:25:22.602Z,102334.47
2022-09-05T07:28:26.495Z,102334.94
2022-09-05T07:30:55.662Z,102338.53
2022-09-05T07:33:29.077Z,102333.13
2022-09-05T07:36:19.493Z,102336.94
2022-09-05T07:39:02.342Z,102338.78
2022-09-05T07:41:41.036Z,102343.03
2022-09-05T07:44:30.786Z,102344.78
2022-09-05T07:47:10.157Z,102348.81
2022-09-05T07:49:51.901Z,102343.25
2022-09-05T07:56:49.703Z,102346.50
2022-09-05T07:57:00.082Z,102356.91
2022-09-05T07:58:17.265Z,102360.72
2022-09-05T08:00:50.793Z,102364.19
2022-09-05T08:03:23.181Z,102368.09
2022-09-05T08:05:54.180Z,102366.84
2022-09-05T08:08:31.502Z,102355.13
2022-09-05T08:11:23.542Z,102370.31
2022-09-05T08:14:45.187Z,102366.94
2022-09-05T08:17:17.154Z,102360.50
2022-09-05T08:20:08.982Z,102370.75
2022-09-05T08:23:04.373Z,102365.59
2022-09-05T08:25:57.557Z,102369.91
2022-09-05T08:28:45.137Z,102367.78
2022-09-05T08:31:21.905Z,102365.03
2022-09-05T08:33:52.717Z,102367.25
2022-09-05T08:36:36.219Z,102367.03
2022-09-05T08:39:05.986Z,102354.66
2022-09-05T08:42:05.030Z,102359.72
2022-09-05T08:46:42.505Z,102354.69
2022-09-05T08:48:12.653Z,102354.59
2022-09-05T08:51:13.495Z,102351.31
2022-09-05T08:54:04.158Z,102350.94
2022-09-05T08:56:48.371Z,102349.03
2022-09-05T08:59:33.614Z,102350.28
2022-09-05T09:02:47.937Z,102352.00
2022-09-05T09:05:24.031Z,102348.59
2022-09-05T09:07:56.607Z,102352.69
2022-09-05T09:10:37.601Z,102349.31
2022-09-05T09:13:23.069Z,102352.78
2022-09-05T09:16:06.584Z,102352.59
2022-09-05T09:18:53.568Z,102346.91
2022-09-05T09:21:38.941Z,102351.81
2022-09-05T09:24:40.149Z,102354.69
2022-09-05T09:27:13.222Z,102352.56
2022-09-05T09:29:42.801Z,102350.97
2022-09-05T09:32:14.253Z,102343.53
2022-09-05T09:35:06.464Z,102338.75
2022-09-05T09:38:07.017Z,102334.91
2022-09-05T09:40:52.368Z,102342.97
2022-09-05T09:43:53.871Z,102337.44
2022-09-05T09:46:43.538Z,102339.63
2022-09-05T09:49:49.672Z,102328.44
2022-09-05T09:52:56.601Z,102332.28
2022-09-05T09:55:45.968Z,102324.69
2022-09-05T09:58:15.681Z,102330.59
2022-09-05T10:01:00.832Z,102325.19
2022-09-05T10:09:03.050Z,102325.91
2022-09-05T10:11:09.183Z,102322.91
2022-09-05T10:11:09.343Z,102316.78
2022-09-05T10:13:20.031Z,102320.75
2022-09-05T10:16:21.486Z,102310.41
2022-09-05T10:19:02.360Z,102314.63
2022-09-05T10:24:52.581Z,102301.88
2022-09-05T10:27:29.921Z,102298.59
2022-09-05T10:30:08.067Z,102305.66
2022-09-05T10:35:13.252Z,102294.56
2022-09-05T10:36:07.907Z,102293.13
2022-09-05T10:38:46.421Z,102298.59
2022-09-05T10:41:20.935Z,102287.78
2022-09-05T10:44:02.923Z,102290.41
2022-09-05T10:47:00.385Z,102294.34
2022-09-05T10:49:33.801Z,102288.88
2022-09-05T10:52:22.353Z,102291.66
2022-09-05T10:55:15.208Z,102280.53
2022-09-05T10:57:51.222Z,102290.81
2022-09-05T11:02:30.288Z,102279.97
2022-09-05T11:03:52.644Z,102287.22
2022-09-05T11:06:28.436Z,102287.66
2022-09-05T11:09:06.142Z,102272.56
2022-09-05T11:11:45.942Z,102278.91
2022-09-05T11:14:44.232Z,102274.66
2022-09-05T11:17:31.967Z,102282.78
2022-09-05T11:20:30.328Z,102271.59
2022-09-05T11:23:12.659Z,102265.81
2022-09-05T11:25:41.275Z,102269.41
2022-09-05T11:28:22.264Z,102260.44
2022-09-05T11:30:54.630Z,102252.47
2022-09-05T11:39:50.314Z,102259.56
2022-09-05T11:39:53.971Z,102265.81
2022-09-05T11:40:00.589Z,102265.09
2022-09-05T11:43:01.977Z,102259.66
2022-09-05T11:46:02.801Z,102266.94
2022-09-05T11:48:35.270Z,102268.47
2022-09-05T11:51:33.975Z,102261.72
2022-09-05T11:54:06.532Z,102254.88
2022-09-05T11:57:18.016Z,102255.56
2022-09-05T12:00:32.184Z,102249.78
2022-09-05T12:03:58.260Z,102248.63
2022-09-05T12:06:48.193Z,102244.25
2022-09-05T12:09:38.067Z,102244.09
2022-09-05T12:12:41.300Z,102249.06
2022-09-05T12:15:34.252Z,102235.84
2022-09-05T12:18:18.942Z,102252.91
2022-09-05T12:20:52.362Z,102251.09
2022-09-05T12:23:49.365Z,102256.25
2022-09-05T12:29:29.332Z,102259.31
2022-09-05T12:33:48.017Z,102259.09
2022-09-05T12:36:06.665Z,102267.84
2022-09-05T12:40:58.291Z,102254.88
2022-09-05T12:41:44.902Z,102253.97
2022-09-05T12:42:09.901Z,102267.41
2022-09-05T12:44:42.713Z,102247.22
2022-09-05T12:47:18.757Z,102252.44
2022-09-05T12:50:14.438Z,102249.59
2022-09-05T12:52:46.602Z,102250.34
2022-09-05T12:55:29.359Z,102240.56
2022-09-05T13:02:58.008Z,102247.81
2022-09-05T13:03:01.948Z,102250.03
2022-09-05T13:04:16.102Z,102249.22
2022-09-05T13:06:42.427Z,102248.56
2022-09-05T13:09:11.004Z,102250.91
2022-09-05T13:14:57.342Z,102248.28
2022-09-05T13:15:28.663Z,102238.34
2022-09-05T13:18:08.506Z,102229.13
2022-09-05T13:20:39.267Z,102234.75
2022-09-05T13:23:31.157Z,102229.06
2022-09-05T13:26:08.249Z,102233.69
2022-09-05T13:28:52.818Z,102240.38
2022-09-05T13:38:04.004Z,102234.50
2022-09-05T13:38:20.930Z,102233.53
2022-09-05T13:38:29.313Z,102239.53
2022-09-05T13:40:43.351Z,102231.03
2022-09-05T13:43:26.493Z,102226.84
2022-09-05T13:46:10.962Z,102230.75
2022-09-05T13:51:54.645Z,102221.44
2022-09-05T13:54:43.619Z,102228.22
2022-09-05T13:57:33.159Z,102225.63
2022-09-05T14:00:08.780Z,102238.56
2022-09-05T14:03:39.101Z,102232.25
2022-09-05T14:06:45.940Z,102231.75
2022-09-05T14:09:41.253Z,102236.59
2022-09-05T14:12:11.642Z,102238.13
2022-09-05T14:17:54.527Z,102233.25
2022-09-05T14:21:00.829Z,102238.19
2022-09-05T14:23:40.573Z,102228.38
2022-09-05T14:26:15.853Z,102221.19
2022-09-05T14:29:23.095Z,102227.38
2022-09-05T14:37:36.554Z,102219.91
2022-09-05T14:37:55.238Z,102220.19
2022-09-05T14:38:56.362Z,102220.69
2022-09-05T14:41:28.727Z,102210.81
2022-09-05T14:44:27.589Z,102200.75
2022-09-05T14:47:35.644Z,102205.75
2022-09-05T14:50:06.131Z,102198.47
2022-09-05T14:52:35.572Z,102197.28
2022-09-05T15:02:44.773Z,102180.38
2022-09-05T15:02:45.242Z,102188.75
2022-09-05T15:06:34.154Z,102194.38
2022-09-05T15:12:14.753Z,102184.28
2022-09-05T15:12:24.183Z,102180.94
2022-09-05T15:14:51.455Z,102179.72
2022-09-05T15:17:24.166Z,102181.53
2022-09-05T15:20:05.344Z,102177.66
2022-09-05T15:22:38.543Z,102173.38
2022-09-05T15:25:18.723Z,102175.91
2022-09-05T15:27:47.089Z,102176.53
2022-09-05T15:30:34.881Z,102175.59
2022-09-05T15:33:25.406Z,102175.94
2022-09-05T15:35:53.183Z,102179.31
2022-09-05T15:38:27.330Z,102182.81
2022-09-05T15:41:19.524Z,102188.47
2022-09-05T15:44:04.601Z,102181.59
2022-09-05T15:47:01.238Z,102187.03
2022-09-05T15:49:52.584Z,102187.84
2022-09-05T15:52:19.248Z,102184.72
2022-09-05T15:55:03.665Z,102180.53
2022-09-05T15:57:34.284Z,102175.00
2022-09-05T16:00:10.136Z,102172.84
2022-09-05T16:02:44.809Z,102175.72
2022-09-05T16:10:36.492Z,102168.75
2022-09-05T16:10:50.657Z,102178.88
2022-09-05T16:12:07.656Z,102177.25
2022-09-05T16:14:26.626Z,102170.53
2022-09-05T16:23:13.032Z,102181.84
2022-09-05T16:23:23.749Z,102177.63
2022-09-05T16:23:25.664Z,102178.72
2022-09-05T16:25:57.001Z,102175.81
2022-09-05T16:28:27.908Z,102175.44
2022-09-05T16:31:19.354Z,102184.06
2022-09-05T16:33:47.641Z,102178.66
2022-09-05T16:36:19.044Z,102174.00
2022-09-05T16:38:49.725Z,102179.38
2022-09-05T16:41:41.695Z,102175.91
2022-09-05T16:44:27.053Z,102177.59
2022-09-05T16:47:39.740Z,102175.06
2022-09-05T16:50:34.453Z,102177.94
2022-09-05T16:53:20.928Z,102171.59
2022-09-05T16:56:06.869Z,102172.53
2022-09-05T16:58:46.093Z,102172.63
2022-09-05T17:01:37.742Z,102177.09
2022-09-05T17:04:36.925Z,102160.63
2022-09-05T17:07:16.452Z,102156.38
2022-09-05T17:09:45.302Z,102161.16
2022-09-05T17:12:22.880Z,102158.78
2022-09-05T17:14:53.973Z,102156.16
2022-09-05T17:18:20.165Z,102162.63
2022-09-05T17:20:25.234Z,102170.63
2022-09-05T17:26:36.971Z,102165.81
2022-09-05T17:29:25.254Z,102163.13
2022-09-05T17:29:28.321Z,102166.06
2022-09-05T17:31:58.221Z,102164.50
2022-09-05T17:34:51.242Z,102174.78
2022-09-05T17:37:27.096Z,102174.25
2022-09-05T17:40:31.825Z,102172.41
2022-09-05T17:43:02.535Z,102172.41
2022-09-05T17:45:44.777Z,102169.44
2022-09-05T17:48:16.509Z,102180.53
2022-09-05T17:50:51.505Z,102178.13
2022-09-05T17:53:25.604Z,102173.41
2022-09-05T17:55:54.722Z,102171.16
2022-09-05T17:59:01.297Z,102181.53
2022-09-05T18:01:28.843Z,102176.75
2022-09-05T18:04:13.182Z,102184.91
2022-09-05T18:06:47.072Z,102176.47
2022-09-05T18:09:39.908Z,102179.31
2022-09-05T18:13:13.551Z,102180.69
2022-09-05T18:15:28.449Z,102187.22
2022-09-05T18:18:01.296Z,102194.78
2022-09-05T18:20:54.166Z,102192.47
2022-09-05T18:23:54.532Z,102195.31
2022-09-05T18:26:24.641Z,102198.38
2022-09-05T18:29:21.332Z,102202.34
2022-09-05T18:32:00.085Z,102201.00
2022-09-05T18:34:32.208Z,102202.72
2022-09-05T18:36:59.080Z,102197.47
2022-09-05T18:39:38.051Z,102200.09
2022-09-05T18:42:33.313Z,102189.97
2022-09-05T18:45:28.737Z,102195.44
2022-09-05T18:48:02.764Z,102202.00
2022-09-05T18:50:34.805Z,102197.19
2022-09-05T18:53:10.327Z,102194.34
2022-09-05T18:56:27.405Z,102192.53
2022-09-05T18:59:24.085Z,102194.75
2022-09-05T19:02:00.366Z,102198.59
2022-09-05T19:04:46.485Z,102204.16
2022-09-05T19:07:28.215Z,102196.38
2022-09-05T19:10:36.019Z,102204.16
2022-09-05T19:13:18.518Z,102187.84
2022-09-05T19:16:43.184Z,102195.72
2022-09-05T19:19:16.672Z,102195.47
2022-09-05T19:22:05.538Z,102183.16
2022-09-05T19:24:45.376Z,102185.34
2022-09-05T19:30:19.329Z,102180.81
2022-09-05T19:36:56.310Z,102169.19
2022-09-05T19:37:06.455Z,102171.75
2022-09-05T19:37:25.452Z,102168.25
2022-09-05T19:40:46.715Z,102162.91
2022-09-05T19:47:29.406Z,102161.97
2022-09-05T19:47:47.448Z,102158.59
2022-09-05T19:50:27.860Z,102158.59
2022-09-05T19:53:07.735Z,102159.63
2022-09-05T19:55:37.721Z,102165.00
2022-09-05T19:58:29.466Z,102169.94
2022-09-05T20:01:08.427Z,102168.81
2022-09-05T20:03:41.922Z,102169.00
2022-09-05T20:06:30.291Z,102165.81
2022-09-05T20:09:21.467Z,102169.59
2022-09-05T20:11:56.030Z,102161.69
2022-09-05T20:14:28.986Z,102161.63
2022-09-05T20:17:16.956Z,102173.72
2022-09-05T20:19:44.817Z,102166.75
2022-09-05T20:22:46.885Z,102171.38
2022-09-05T20:25:19.890Z,102163.81
2022-09-05T20:28:07.108Z,102159.69
2022-09-05T20:30:42.309Z,102160.88
2022-09-05T20:33:36.857Z,102158.38
2022-09-05T20:43:08.717Z,102160.25
2022-09-05T20:43:25.125Z,102156.75
2022-09-05T20:43:35.737Z,102165.59
2022-09-05T20:44:50.707Z,102155.06
2022-09-05T20:52:49.048Z,102155.06
2022-09-05T20:54:14.521Z,102158.00
2022-09-05T20:54:27.071Z,102156.50
2022-09-05T20:56:23.630Z,102157.81
2022-09-05T20:58:51.592Z,102155.38
2022-09-05T21:01:23.420Z,102166.19
2022-09-05T21:03:59.386Z,102165.25
2022-09-05T21:06:34.401Z,102167.97
2022-09-05T21:09:26.210Z,102162.03
2022-09-05T21:11:55.789Z,102169.69
2022-09-05T21:14:24.201Z,102156.63
2022-09-05T21:17:14.901Z,102158.47
2022-09-05T21:19:53.499Z,102166.09
2022-09-05T21:22:33.232Z,102159.25
2022-09-05T21:25:15.154Z,102160.25
2022-09-05T21:27:54.487Z,102152.75
2022-09-05T21:30:29.410Z,102159.59
2022-09-05T21:33:18.166Z,102161.00
2022-09-05T21:35:48.818Z,102147.88
2022-09-05T21:38:18.361Z,102147.22
2022-09-05T21:41:04.629Z,102147.22
2022-09-05T21:47:38.804Z,102149.09
2022-09-05T21:47:46.807Z,102144.28
2022-09-05T21:49:14.266Z,102152.91
2022-09-05T21:51:40.903Z,102148.78
2022-09-05T21:59:16.076Z,102153.38
2022-09-05T21:59:25.144Z,102152.16
2022-09-05T21:59:59.535Z,102147.94
2022-09-05T22:02:46.724Z,102140.63
2022-09-05T22:05:13.707Z,102139.78
2022-09-05T22:07:40.540Z,102134.97
2022-09-05T22:10:08.597Z,102144.56
2022-09-05T22:12:38.965Z,102131.50
2022-09-05T22:15:27.471Z,102136.00
2022-09-05T22:18:16.454Z,102132.53
2022-09-05T22:20:44.891Z,102141.53
2022-09-05T22:23:11.938Z,102134.75
2022-09-05T22:25:39.315Z,102132.91
2022-09-05T22:28:12.763Z,102137.66
2022-09-05T22:30:39.754Z,102142.63
2022-09-05T22:33:07.270Z,102142.16
2022-09-05T22:35:35.855Z,102137.56
2022-09-05T22:38:10.553Z,102140.13
2022-09-05T22:40:40.842Z,102138.31
2022-09-05T22:43:09.481Z,102134.00
2022-09-05T22:45:38.051Z,102131.38
2022-09-05T22:48:10.500Z,102135.13
2022-09-05T22:50:38.349Z,102132.41
2022-09-05T22:53:07.088Z,102131.56
2022-09-05T22:55:35.154Z,102129.69
2022-09-05T22:58:02.567Z,102128.88
2022-09-05T23:00:29.532Z,102119.56
2022-09-05T23:03:00.277Z,102123.03
2022-09-05T23:05:27.242Z,102124.81
2022-09-05T23:07:57.772Z,102116.00
2022-09-05T23:10:25.463Z,102125.91
2022-09-05T23:12:52.440Z,102127.81
2022-09-05T23:15:19.453Z,102120.88
2022-09-05T23:17:53.602Z,102126.28
2022-09-05T23:20:20.368Z,102126.38
2022-09-05T23:22:51.576Z,102117.50
2022-09-05T23:25:18.700Z,102113.25
2022-09-05T23:27:45.886Z,102121.13
2022-09-05T23:30:12.624Z,102113.34
2022-09-05T23:32:50.146Z,102114.88
2022-09-05T23:35:20.783Z,102110.16
2022-09-05T23:37:48.428Z,102111.09
2022-09-05T23:40:17.841Z,102116.41
2022-09-05T23:42:57.385Z,102120.53
2022-09-05T23:45:24.998Z,102113.59
2022-09-05T23:47:51.931Z,102116.22
2022-09-05T23:50:19.646Z,102109.47
2022-09-05T23:52:47.452Z,102104.13
2022-09-05T23:55:17.034Z,102111.09
2022-09-05T23:57:44.211Z,102100.94
